Japan, Missouri
Current Conditions -  °F | °C
As of 8:15 AM on Friday 19 Dec 2014 (Local Time) from KFYG Reporting Station
Haze Haze  
Wind Chill: 32°   Ceiling: 6000
Heat Index: 32°   Visibility: 5mi
Dew Point: 28°   Wind: 0mph
Humidity: 87%   Direction: NA
Pressure: 30.3"   Gusts: NA
Location:  38.2643°N, 91.1348°W
Report Text: KFYG 191415Z AUTO 00000KT 5SM BR SCT025 OVC060 00/M02 A3030 RMK AO2
Loading
Personal Weather Stations






























Interactive Weather Map New forecast layout! Learn more

10-Day Weather Forecast

Advertisements
Track Severe Weather on mobile